Country
Station

 

Weather  for  Trenton, Mercer County Airport  -  United States    United States

  
8 °C (46 °F)
    
 
 

Current METAR for Trenton, Mercer County Airport is :

KTTN 181453Z 32010G19KT 10SM CLR 08/M05 A3038 RMK AO2 SLP282 T00831050 51016

 

This is a report for Trenton, Mercer County Airport - United States.
 
The report was made a moment ago, at 14:53 UTC .
The wind was blowing at a speed of 5.1 meters per second (11.5 miles per hour) with gusts up to 9.8 meters per second (21.9 miles per hour) from northwest (320°).
 
The temperature was 8 °C (46 °F), with a dew-point at -5 °C (23 °F).
The atmospheric pressure was 1029 hPa (30.38 inHg).
The relative humidity was 39.3%.
 
The sky was clear.
 
The overall visibility was 16.1 kilometers (10.0 miles).
 

 
 
 
 

Country :   A   B   C   D   E   F   G   H   I   J   K   L   M   N   O   P   Q   R   S   T   U   V   W   Y   Z

 

Site Info  |  Disclaimer  |  Credits  |  Privacy
Contact us  |  Add to favorites
© 2013-2018 METARs - All rights reserved